Time;durP1;ratioP1;P1;durP2;ratioP2;P2;SDS_P1;SDS_P2;PMS_P1;PMS_P2;Temp;Humidity;BMP_temperature;BMP_pressure;BME280_temperature;BME280_humidity;BME280_pressure;Samples;Min_cycle;Max_cycle;Signal;HPM_P1;HPM_P2
2024/01/06 00:03:58;;;;;;;1.23;0.50;;;;;;;;;;21015095;28;20289;-85
2024/01/06 00:14:00;;;;;;;1.73;0.60;;;;;;;;;;21022235;28;20259;-85
2024/01/06 00:24:01;;;;;;;0.70;0.23;;;;;;;;;;21005046;28;20247;-82
2024/01/06 00:34:03;;;;;;;0.73;0.30;;;;;;;;;;21006184;28;20221;-82
2024/01/06 00:44:05;;;;;;;0.40;0.30;;;;;;;;;;21020887;28;20267;-82
2024/01/06 00:54:06;;;;;;;0.77;0.60;;;;;;;;;;21011139;28;20217;-83
2024/01/06 01:04:08;;;;;;;4.03;0.80;;;;;;;;;;21008590;28;20686;-83
2024/01/06 01:14:10;;;;;;;5.33;1.80;;;;;;;;;;20994787;28;20252;-82
2024/01/06 01:24:11;;;;;;;1.33;0.60;;;;;;;;;;20993530;28;20221;-84
2024/01/06 01:34:13;;;;;;;0.90;0.47;;;;;;;;;;20971610;28;20732;-83
2024/01/06 01:44:15;;;;;;;2.10;0.50;;;;;;;;;;20990487;28;20267;-84
2024/01/06 01:54:17;;;;;;;1.67;0.40;;;;;;;;;;20985442;28;20224;-84
2024/01/06 02:04:19;;;;;;;0.77;0.40;;;;;;;;;;21016016;28;20221;-83
2024/01/06 02:14:20;;;;;;;0.73;0.30;;;;;;;;;;20969936;28;20714;-84
2024/01/06 02:24:22;;;;;;;0.23;0.20;;;;;;;;;;20962704;28;20217;-84
2024/01/06 02:34:23;;;;;;;1.13;0.47;;;;;;;;;;20970795;28;20205;-83
2024/01/06 02:44:25;;;;;;;1.77;0.77;;;;;;;;;;20969920;28;20279;-83
2024/01/06 02:54:27;;;;;;;1.60;0.50;;;;;;;;;;20986726;28;20690;-82
2024/01/06 03:04:29;;;;;;;0.90;0.40;;;;;;;;;;20976007;28;20357;-84
2024/01/06 03:14:30;;;;;;;0.60;0.30;;;;;;;;;;20984015;28;20593;-83
2024/01/06 03:24:32;;;;;;;0.90;0.37;;;;;;;;;;20973185;28;20251;-83
2024/01/06 03:34:34;;;;;;;1.40;0.77;;;;;;;;;;20965243;28;20221;-83
2024/01/06 03:44:36;;;;;;;0.40;0.20;;;;;;;;;;20988737;28;20276;-83
2024/01/06 03:54:37;;;;;;;0.97;0.50;;;;;;;;;;20918707;28;20206;-83
2024/01/06 04:04:39;;;;;;;0.30;0.17;;;;;;;;;;20976338;28;20285;-83
2024/01/06 04:14:41;;;;;;;0.63;0.27;;;;;;;;;;20980729;28;20229;-84
2024/01/06 04:24:42;;;;;;;0.50;0.30;;;;;;;;;;20984697;28;20225;-82
2024/01/06 04:34:44;;;;;;;0.93;0.50;;;;;;;;;;20958145;28;20213;-83
2024/01/06 04:44:46;;;;;;;2.07;0.50;;;;;;;;;;21008990;28;20225;-83
2024/01/06 04:54:47;;;;;;;0.50;0.30;;;;;;;;;;20996100;28;20575;-83
2024/01/06 05:04:49;;;;;;;1.10;0.50;;;;;;;;;;20977943;28;20257;-83
2024/01/06 05:14:51;;;;;;;0.53;0.30;;;;;;;;;;21003472;28;20251;-84
2024/01/06 05:24:53;;;;;;;1.97;0.30;;;;;;;;;;21037046;28;20229;-79
2024/01/06 05:34:54;;;;;;;0.80;0.40;;;;;;;;;;20969462;28;20213;-83
2024/01/06 05:44:56;;;;;;;1.47;0.40;;;;;;;;;;20992316;28;20275;-81
2024/01/06 05:54:58;;;;;;;0.33;0.33;;;;;;;;;;20968465;28;20571;-81
2024/01/06 06:05:00;;;;;;;1.57;0.40;;;;;;;;;;20998161;28;20281;-79
2024/01/06 06:15:03;;;;;;;1.23;0.60;;;5.60;99.90;;;;;;20914268;28;20214;-79
2024/01/06 06:25:05;;;;;;;0.40;0.23;;;;;;;;;;20914201;28;20247;-80
2024/01/06 06:35:07;;;;;;;0.20;0.20;;;;;;;;;;20919274;28;20222;-81
2024/01/06 06:45:11;;;;;;;0.93;0.50;;;;;;;;;;20925868;28;20218;-82
2024/01/06 06:55:13;;;;;;;1.00;0.50;;;;;;;;;;20956275;28;20703;-81
2024/01/06 07:05:15;;;;;;;0.80;0.30;;;;;;;;;;20914091;28;20229;-80
2024/01/06 07:15:16;;;;;;;1.20;0.57;;;;;;;;;;20902596;28;20252;-81
2024/01/06 07:25:20;;;;;;;0.60;0.40;;;;;;;;;;20890934;28;20233;-79
2024/01/06 07:35:21;;;;;;;2.13;0.53;;;;;;;;;;20906561;28;20272;-81
2024/01/06 07:45:23;;;;;;;1.73;0.70;;;;;;;;;;20905962;28;20759;-82
2024/01/06 07:55:28;;;;;;;1.10;0.60;;;;;;;;;;20927482;28;20248;-81
2024/01/06 08:05:30;;;;;;;0.47;0.40;;;;;;;;;;20908390;28;20238;-80
2024/01/06 08:15:32;;;;;;;1.87;0.70;;;;;;;;;;21011968;28;20220;-82
2024/01/06 08:25:33;;;;;;;1.53;0.60;;;;;;;;;;21025603;28;20649;-81
2024/01/06 08:35:40;;;;;;;1.30;0.77;;;;;;;;;;21032474;28;20212;-80
2024/01/06 08:45:41;;;;;;;2.10;0.80;;;;;;;;;;21029042;28;20216;-80
2024/01/06 08:55:43;;;;;;;0.90;0.50;;;;;;;;;;20980766;28;20279;-82
2024/01/06 09:05:45;;;;;;;1.27;0.73;;;;;;;;;;21016419;28;20642;-81
2024/01/06 09:15:47;;;;;;;0.90;0.50;;;;;;;;;;20909730;28;20248;-81
2024/01/06 09:25:49;;;;;;;1.07;0.60;;;;;;;;;;20919055;28;20260;-82
2024/01/06 09:35:51;;;;;;;0.90;0.50;;;;;;;;;;20909174;28;20232;-81
2024/01/06 09:46:00;;;;;;;1.63;0.87;;;;;;;;;;20933423;28;20242;-82
2024/01/06 09:56:03;;;;;;;1.37;0.80;;;;;;;;;;20917445;28;20232;-83
2024/01/06 10:06:05;;;;;;;1.73;0.67;;;;;;;;;;20937117;28;20898;-80
2024/01/06 10:16:07;;;;;;;1.83;0.90;;;;;;;;;;20936875;28;20255;-83
2024/01/06 10:26:13;;;;;;;2.47;0.87;;;;;;;;;;20918893;28;20248;-81
2024/01/06 10:36:15;;;;;;;1.10;0.60;;;;;;;;;;20901527;28;20569;-83
2024/01/06 10:46:19;;;;;;;1.37;0.77;;;;;;;;;;20905225;28;20260;-82
2024/01/06 10:56:21;;;;;;;3.53;0.80;;;;;;;;;;20986667;28;20280;-83
2024/01/06 11:06:23;;;;;;;0.80;0.60;;;6.20;99.90;;;;;;20911201;28;20215;-81
2024/01/06 11:16:35;;;;;;;1.87;0.77;;;;;;;;;;20895252;28;20186;-81
2024/01/06 11:26:40;;;;;;;1.97;0.90;;;;;;;;;;20893816;28;20214;-83
2024/01/06 11:36:44;;;;;;;1.57;0.93;;;;;;;;;;20921044;28;20214;-83
2024/01/06 11:46:48;;;;;;;1.60;0.63;;;6.50;99.90;;;;;;20963152;28;20229;-82
2024/01/06 11:56:53;;;;;;;1.20;0.80;;;;;;;;;;20906814;28;20226;-81
2024/01/06 12:07:05;;;;;;;1.27;0.90;;;;;;;;;;20926951;28;20266;-82
2024/01/06 12:17:06;;;;;;;2.23;0.77;;;;;;;;;;20940319;28;20267;-81
2024/01/06 12:27:12;;;;;;;1.23;0.67;;;6.30;99.90;;;;;;20890912;28;20291;-82
2024/01/06 12:37:14;;;;;;;0.77;0.40;;;;;;;;;;20932780;28;20206;-80
2024/01/06 12:47:16;;;;;;;1.97;0.90;;;;;;;;;;20905660;28;20268;-83
2024/01/06 12:57:18;;;;;;;1.10;0.63;;;;;;;;;;20920806;28;20206;-82
2024/01/06 13:07:20;;;;;;;1.43;0.67;;;;;;;;;;20952371;28;20252;-82
2024/01/06 13:17:22;;;;;;;1.90;1.07;;;;;;;;;;20952519;28;20205;-83
2024/01/06 13:27:23;;;;;;;2.07;0.93;;;;;;;;;;20933628;28;20222;-82
2024/01/06 13:37:25;;;;;;;2.47;1.30;;;;;;;;;;20933642;28;20197;-81
2024/01/06 13:47:27;;;;;;;1.97;1.00;;;;;;;;;;20926196;28;20222;-82
2024/01/06 13:57:29;;;;;;;2.00;1.27;;;;;;;;;;20899613;28;20206;-81
2024/01/06 14:07:30;;;;;;;1.70;1.00;;;;;;;;;;20923837;28;20622;-81
2024/01/06 14:17:33;;;;;;;1.67;1.00;;;;;;;;;;20897046;28;20209;-82
2024/01/06 14:27:34;;;;;;;2.60;1.07;;;;;;;;;;20921552;28;20221;-82
2024/01/06 14:37:36;;;;;;;1.40;0.80;;;;;;;;;;20918653;28;20210;-82
2024/01/06 14:47:38;;;;;;;2.40;1.60;;;;;;;;;;20925289;28;20240;-82
2024/01/06 14:57:40;;;;;;;1.90;0.90;;;;;;;;;;20923485;28;20251;-80
2024/01/06 15:07:42;;;;;;;2.10;1.07;;;;;;;;;;20972129;28;20213;-82
2024/01/06 15:17:44;;;;;;;1.70;0.97;;;;;;;;;;21006616;28;20267;-83
2024/01/06 15:27:47;;;;;;;2.67;1.00;;;;;;;;;;21034304;28;20221;-82
2024/01/06 15:37:49;;;;;;;2.40;1.50;;;;;;;;;;21025789;28;20205;-81
2024/01/06 15:47:51;;;;;;;2.60;1.30;;;;;;;;;;21007338;28;20789;-82
2024/01/06 15:57:52;;;;;;;1.93;1.10;;;;;;;;;;21025730;28;20205;-82
2024/01/06 16:07:54;;;;;;;1.47;1.13;;;;;;;;;;20971748;28;20268;-79
2024/01/06 16:17:56;;;;;;;3.20;2.00;;;;;;;;;;20941057;28;20624;-81
2024/01/06 16:27:57;;;;;;;1.67;1.20;;;;;;;;;;20932866;28;20225;-82
2024/01/06 16:37:59;;;;;;;2.47;1.63;;;;;;;;;;20941735;28;20289;-84
2024/01/06 16:48:01;;;;;;;2.43;1.60;;;;;;;;;;20925981;28;20255;-83
2024/01/06 16:58:03;;;;;;;1.30;0.97;;;;;;;;;;20938106;28;20210;-82
2024/01/06 17:08:05;;;;;;;1.47;1.03;;;;;;;;;;20961046;28;20294;-80
2024/01/06 17:18:07;;;;;;;1.30;0.80;;;;;;;;;;20997185;28;20345;-82
2024/01/06 17:28:09;;;;;;;2.73;1.47;;;;;;;;;;20976467;28;20271;-82
2024/01/06 17:38:11;;;;;;;2.73;1.40;;;;;;;;;;20976168;28;20205;-81
2024/01/06 17:48:12;;;;;;;2.37;1.40;;;;;;;;;;20975103;28;20275;-83
2024/01/06 17:58:15;;;;;;;3.37;1.40;;;;;;;;;;20965480;28;20217;-83
2024/01/06 18:08:16;;;;;;;3.40;1.60;;;;;;;;;;20974095;28;20232;-82
2024/01/06 18:18:18;;;;;;;2.53;1.70;;;;;;;;;;21008796;28;20262;-85
2024/01/06 18:28:23;;;;;;;2.27;1.23;;;;;;;;;;20935716;28;20274;-83
2024/01/06 18:38:25;;;;;;;2.53;1.50;;;;;;;;;;20951363;28;20255;-83
2024/01/06 18:48:27;;;;;;;2.57;1.43;;;;;;;;;;21001707;28;20209;-83
2024/01/06 18:58:28;;;;;;;2.53;1.50;;;;;;;;;;20966848;28;20213;-82
2024/01/06 19:08:30;;;;;;;2.10;1.27;;;;;;;;;;20962818;28;20225;-82
2024/01/06 19:18:32;;;;;;;2.27;1.43;;;;;;;;;;20842470;28;20222;-82
2024/01/06 19:28:34;;;;;;;2.53;1.77;;;;;;;;;;20878092;28;20770;-79
2024/01/06 19:38:36;;;;;;;1.80;1.17;;;;;;;;;;20877182;28;20221;-81
2024/01/06 19:48:38;;;;;;;2.10;1.10;;;;;;;;;;20892188;28;20251;-83
2024/01/06 19:58:40;;;;;;;2.07;1.37;;;;;;;;;;20891367;28;20614;-82
2024/01/06 20:08:42;;;;;;;2.10;1.20;;;;;;;;;;20852730;28;20320;-80
2024/01/06 20:18:44;;;;;;;2.70;1.63;;;;;;;;;;20901493;28;20206;-81
2024/01/06 20:28:49;;;;;;;2.73;1.40;;;5.90;99.90;;;;;;20856048;28;20244;-83
2024/01/06 20:38:51;;;;;;;3.50;1.77;;;;;;;;;;20963123;28;20213;-82
2024/01/06 20:48:54;;;;;;;2.50;1.30;;;;;;;;;;20895928;28;20222;-83
2024/01/06 20:58:56;;;;;;;2.60;1.17;;;;;;;;;;20925953;28;20221;-83
2024/01/06 21:08:58;;;;;;;4.93;2.23;;;;;;;;;;20923771;28;20229;-84
2024/01/06 21:18:59;;;;;;;3.27;1.80;;;;;;;;;;20934043;28;20263;-85
2024/01/06 21:29:01;;;;;;;2.40;1.53;;;;;;;;;;20890389;28;20259;-87
2024/01/06 21:39:03;;;;;;;2.43;1.40;;;;;;;;;;20968512;28;20580;-84
2024/01/06 21:49:04;;;;;;;4.10;2.00;;;;;;;;;;20943609;28;20222;-87
2024/01/06 21:59:07;;;;;;;2.10;1.37;;;;;;;;;;20917089;28;20221;-87
2024/01/06 22:09:08;;;;;;;2.53;1.30;;;;;;;;;;20920973;28;20238;-84
2024/01/06 22:19:10;;;;;;;3.70;1.30;;;;;;;;;;20883427;28;20263;-85
2024/01/06 22:29:12;;;;;;;4.07;1.80;;;;;;;;;;20900692;28;20702;-86
2024/01/06 22:39:15;;;;;;;2.70;1.50;;;;;;;;;;20934347;28;20210;-87
2024/01/06 22:49:17;;;;;;;2.43;1.53;;;;;;;;;;20914654;28;20226;-85
2024/01/06 22:59:19;;;;;;;1.73;1.20;;;;;;;;;;20903313;28;20558;-85
2024/01/06 23:09:21;;;;;;;2.47;1.30;;;;;;;;;;20955048;28;20212;-82
2024/01/06 23:19:23;;;;;;;2.90;1.80;;;;;;;;;;21014836;28;20209;-85
2024/01/06 23:29:25;;;;;;;2.47;1.50;;;;;;;;;;20958431;28;20591;-84
2024/01/06 23:39:27;;;;;;;2.07;1.20;;;;;;;;;;21018199;28;20250;-83
2024/01/06 23:49:28;;;;;;;1.80;1.00;;;;;;;;;;21000437;28;20229;-85
2024/01/06 23:59:30;;;;;;;1.67;0.93;;;;;;;;;;20982538;28;20583;-83
